sensor_id;sensor_type;location;lat;lon;timestamp;temperature;humidity
13616;DHT22;6879;51.368;6.782;2024-01-30T00:02:20;9.60;99.90
13616;DHT22;6879;51.368;6.782;2024-01-30T00:04:49;9.60;99.90
13616;DHT22;6879;51.368;6.782;2024-01-30T00:07:17;9.60;99.90
13616;DHT22;6879;51.368;6.782;2024-01-30T00:09:48;9.60;99.90
13616;DHT22;6879;51.368;6.782;2024-01-30T00:12:16;9.60;99.90
13616;DHT22;6879;51.368;6.782;2024-01-30T00:14:45;9.60;99.90
13616;DHT22;6879;51.368;6.782;2024-01-30T00:17:16;9.60;99.90
13616;DHT22;6879;51.368;6.782;2024-01-30T00:19:44;9.50;99.90
13616;DHT22;6879;51.368;6.782;2024-01-30T00:22:13;9.60;99.90
13616;DHT22;6879;51.368;6.782;2024-01-30T00:24:41;9.60;99.90
13616;DHT22;6879;51.368;6.782;2024-01-30T00:27:11;9.60;99.90
13616;DHT22;6879;51.368;6.782;2024-01-30T00:29:40;9.60;99.90
13616;DHT22;6879;51.368;6.782;2024-01-30T00:32:08;9.50;99.90
13616;DHT22;6879;51.368;6.782;2024-01-30T00:34:37;9.50;99.90
13616;DHT22;6879;51.368;6.782;2024-01-30T00:37:06;9.40;99.90
13616;DHT22;6879;51.368;6.782;2024-01-30T00:39:34;9.40;99.90
13616;DHT22;6879;51.368;6.782;2024-01-30T00:42:03;9.40;99.90
13616;DHT22;6879;51.368;6.782;2024-01-30T00:44:36;9.30;99.90
13616;DHT22;6879;51.368;6.782;2024-01-30T00:47:06;9.20;99.90
13616;DHT22;6879;51.368;6.782;2024-01-30T00:49:34;9.20;99.90
13616;DHT22;6879;51.368;6.782;2024-01-30T00:52:03;9.20;99.90
13616;DHT22;6879;51.368;6.782;2024-01-30T00:54:32;9.20;99.90
13616;DHT22;6879;51.368;6.782;2024-01-30T00:57:01;9.10;99.90
13616;DHT22;6879;51.368;6.782;2024-01-30T00:59:29;9.20;99.90
13616;DHT22;6879;51.368;6.782;2024-01-30T01:01:59;9.10;99.90
13616;DHT22;6879;51.368;6.782;2024-01-30T01:04:28;9.10;99.90
13616;DHT22;6879;51.368;6.782;2024-01-30T01:06:57;9.10;99.90
13616;DHT22;6879;51.368;6.782;2024-01-30T01:09:26;9.10;99.90
13616;DHT22;6879;51.368;6.782;2024-01-30T01:11:54;9.10;99.90
13616;DHT22;6879;51.368;6.782;2024-01-30T01:14:23;9.10;99.90
13616;DHT22;6879;51.368;6.782;2024-01-30T01:16:52;9.10;99.90
13616;DHT22;6879;51.368;6.782;2024-01-30T01:19:22;9.10;99.90
13616;DHT22;6879;51.368;6.782;2024-01-30T01:21:51;9.10;99.90
13616;DHT22;6879;51.368;6.782;2024-01-30T01:24:20;9.10;99.90
13616;DHT22;6879;51.368;6.782;2024-01-30T01:26:48;9.10;99.90
13616;DHT22;6879;51.368;6.782;2024-01-30T01:29:18;9.10;99.90
13616;DHT22;6879;51.368;6.782;2024-01-30T01:31:48;9.10;99.90
13616;DHT22;6879;51.368;6.782;2024-01-30T01:34:16;9.10;99.90
13616;DHT22;6879;51.368;6.782;2024-01-30T01:36:46;9.10;99.90
13616;DHT22;6879;51.368;6.782;2024-01-30T01:39:15;9.20;99.90
13616;DHT22;6879;51.368;6.782;2024-01-30T01:41:43;9.20;99.90
13616;DHT22;6879;51.368;6.782;2024-01-30T01:44:12;9.10;99.90
13616;DHT22;6879;51.368;6.782;2024-01-30T01:46:41;9.10;99.90
13616;DHT22;6879;51.368;6.782;2024-01-30T01:49:09;9.10;99.90
13616;DHT22;6879;51.368;6.782;2024-01-30T01:51:39;9.10;99.90
13616;DHT22;6879;51.368;6.782;2024-01-30T01:54:10;9.10;99.90
13616;DHT22;6879;51.368;6.782;2024-01-30T01:56:39;9.00;99.90
13616;DHT22;6879;51.368;6.782;2024-01-30T01:59:09;9.10;99.90
13616;DHT22;6879;51.368;6.782;2024-01-30T02:01:37;9.10;99.90
13616;DHT22;6879;51.368;6.782;2024-01-30T02:04:08;9.10;99.90
13616;DHT22;6879;51.368;6.782;2024-01-30T02:06:37;9.10;99.90
13616;DHT22;6879;51.368;6.782;2024-01-30T02:09:06;9.10;99.90
13616;DHT22;6879;51.368;6.782;2024-01-30T02:11:37;9.10;99.90
13616;DHT22;6879;51.368;6.782;2024-01-30T02:14:06;9.10;99.90
13616;DHT22;6879;51.368;6.782;2024-01-30T02:16:34;9.10;99.90
13616;DHT22;6879;51.368;6.782;2024-01-30T02:19:03;9.00;99.90
13616;DHT22;6879;51.368;6.782;2024-01-30T02:21:34;9.00;99.90
13616;DHT22;6879;51.368;6.782;2024-01-30T02:24:03;9.00;99.90
13616;DHT22;6879;51.368;6.782;2024-01-30T02:26:32;9.00;99.90
13616;DHT22;6879;51.368;6.782;2024-01-30T02:29:00;9.00;99.90
13616;DHT22;6879;51.368;6.782;2024-01-30T02:31:29;9.00;99.90
13616;DHT22;6879;51.368;6.782;2024-01-30T02:33:57;9.00;99.90
13616;DHT22;6879;51.368;6.782;2024-01-30T02:36:26;9.00;99.90
13616;DHT22;6879;51.368;6.782;2024-01-30T02:38:56;9.00;99.90
13616;DHT22;6879;51.368;6.782;2024-01-30T02:41:24;8.90;99.90
13616;DHT22;6879;51.368;6.782;2024-01-30T02:43:53;8.90;99.90
13616;DHT22;6879;51.368;6.782;2024-01-30T02:46:22;8.90;99.90
13616;DHT22;6879;51.368;6.782;2024-01-30T02:48:50;8.90;99.90
13616;DHT22;6879;51.368;6.782;2024-01-30T02:51:19;8.90;99.90
13616;DHT22;6879;51.368;6.782;2024-01-30T02:53:47;8.90;99.90
13616;DHT22;6879;51.368;6.782;2024-01-30T02:56:17;8.90;99.90
13616;DHT22;6879;51.368;6.782;2024-01-30T02:58:46;8.90;99.90
13616;DHT22;6879;51.368;6.782;2024-01-30T03:01:15;8.90;99.90
13616;DHT22;6879;51.368;6.782;2024-01-30T03:03:43;8.90;99.90
13616;DHT22;6879;51.368;6.782;2024-01-30T03:06:12;8.90;99.90
13616;DHT22;6879;51.368;6.782;2024-01-30T03:08:42;9.00;99.90
13616;DHT22;6879;51.368;6.782;2024-01-30T03:11:10;9.00;99.90
13616;DHT22;6879;51.368;6.782;2024-01-30T03:13:40;9.00;99.90
13616;DHT22;6879;51.368;6.782;2024-01-30T03:16:09;9.00;99.90
13616;DHT22;6879;51.368;6.782;2024-01-30T03:18:37;8.90;99.90
13616;DHT22;6879;51.368;6.782;2024-01-30T03:21:06;8.90;99.90
13616;DHT22;6879;51.368;6.782;2024-01-30T03:23:34;8.90;99.90
13616;DHT22;6879;51.368;6.782;2024-01-30T03:26:03;8.90;99.90
13616;DHT22;6879;51.368;6.782;2024-01-30T03:28:33;8.90;99.90
13616;DHT22;6879;51.368;6.782;2024-01-30T03:31:03;8.90;99.90
13616;DHT22;6879;51.368;6.782;2024-01-30T03:33:32;9.00;99.90
13616;DHT22;6879;51.368;6.782;2024-01-30T03:36:04;9.00;99.90
13616;DHT22;6879;51.368;6.782;2024-01-30T03:38:32;9.00;99.90
13616;DHT22;6879;51.368;6.782;2024-01-30T03:41:01;8.90;99.90
13616;DHT22;6879;51.368;6.782;2024-01-30T03:43:29;8.90;99.90
13616;DHT22;6879;51.368;6.782;2024-01-30T03:45:58;8.90;99.90
13616;DHT22;6879;51.368;6.782;2024-01-30T03:48:28;8.90;99.90
13616;DHT22;6879;51.368;6.782;2024-01-30T03:50:57;8.90;99.90
13616;DHT22;6879;51.368;6.782;2024-01-30T03:53:26;8.90;99.90
13616;DHT22;6879;51.368;6.782;2024-01-30T03:55:54;8.90;99.90
13616;DHT22;6879;51.368;6.782;2024-01-30T03:58:23;8.90;99.90
13616;DHT22;6879;51.368;6.782;2024-01-30T04:00:51;8.80;99.90
13616;DHT22;6879;51.368;6.782;2024-01-30T04:03:20;8.80;99.90
13616;DHT22;6879;51.368;6.782;2024-01-30T04:05:51;8.70;99.90
13616;DHT22;6879;51.368;6.782;2024-01-30T04:08:20;8.70;99.90
13616;DHT22;6879;51.368;6.782;2024-01-30T04:10:49;8.60;99.90
13616;DHT22;6879;51.368;6.782;2024-01-30T04:13:17;8.60;99.90
13616;DHT22;6879;51.368;6.782;2024-01-30T04:15:46;8.60;99.90
13616;DHT22;6879;51.368;6.782;2024-01-30T04:18:14;8.60;99.90
13616;DHT22;6879;51.368;6.782;2024-01-30T04:20:43;8.60;99.90
13616;DHT22;6879;51.368;6.782;2024-01-30T04:23:14;8.60;99.90
13616;DHT22;6879;51.368;6.782;2024-01-30T04:25:43;8.60;99.90
13616;DHT22;6879;51.368;6.782;2024-01-30T04:28:11;8.70;99.90
13616;DHT22;6879;51.368;6.782;2024-01-30T04:30:40;8.70;99.90
13616;DHT22;6879;51.368;6.782;2024-01-30T04:33:10;8.70;99.90
13616;DHT22;6879;51.368;6.782;2024-01-30T04:35:38;8.70;99.90
13616;DHT22;6879;51.368;6.782;2024-01-30T04:38:07;8.70;99.90
13616;DHT22;6879;51.368;6.782;2024-01-30T04:40:36;8.70;99.90
13616;DHT22;6879;51.368;6.782;2024-01-30T04:43:05;8.80;99.90
13616;DHT22;6879;51.368;6.782;2024-01-30T04:45:34;8.80;99.90
13616;DHT22;6879;51.368;6.782;2024-01-30T04:48:02;8.80;99.90
13616;DHT22;6879;51.368;6.782;2024-01-30T04:50:31;8.80;99.90
13616;DHT22;6879;51.368;6.782;2024-01-30T04:53:00;8.90;99.90
13616;DHT22;6879;51.368;6.782;2024-01-30T04:55:28;8.90;99.90
13616;DHT22;6879;51.368;6.782;2024-01-30T04:57:58;8.90;99.90
13616;DHT22;6879;51.368;6.782;2024-01-30T05:00:27;8.90;99.90
13616;DHT22;6879;51.368;6.782;2024-01-30T05:02:56;8.90;99.90
13616;DHT22;6879;51.368;6.782;2024-01-30T05:05:24;8.90;99.90
13616;DHT22;6879;51.368;6.782;2024-01-30T05:07:53;8.90;99.90
13616;DHT22;6879;51.368;6.782;2024-01-30T05:10:22;8.90;99.90
13616;DHT22;6879;51.368;6.782;2024-01-30T05:12:50;8.80;99.90
13616;DHT22;6879;51.368;6.782;2024-01-30T05:15:20;8.80;99.90
13616;DHT22;6879;51.368;6.782;2024-01-30T05:17:49;8.90;99.90
13616;DHT22;6879;51.368;6.782;2024-01-30T05:20:17;8.80;99.90
13616;DHT22;6879;51.368;6.782;2024-01-30T05:22:47;8.80;99.90
13616;DHT22;6879;51.368;6.782;2024-01-30T05:25:15;8.80;99.90
13616;DHT22;6879;51.368;6.782;2024-01-30T05:27:44;8.80;99.90
13616;DHT22;6879;51.368;6.782;2024-01-30T05:30:13;8.80;99.90
13616;DHT22;6879;51.368;6.782;2024-01-30T05:32:43;8.80;99.90
13616;DHT22;6879;51.368;6.782;2024-01-30T05:35:12;8.80;99.90
13616;DHT22;6879;51.368;6.782;2024-01-30T05:37:41;8.80;99.90
13616;DHT22;6879;51.368;6.782;2024-01-30T05:40:10;8.70;99.90
13616;DHT22;6879;51.368;6.782;2024-01-30T05:42:39;8.70;99.90
13616;DHT22;6879;51.368;6.782;2024-01-30T05:45:08;8.70;99.90
13616;DHT22;6879;51.368;6.782;2024-01-30T05:47:37;8.70;99.90
13616;DHT22;6879;51.368;6.782;2024-01-30T05:50:07;8.70;99.90
13616;DHT22;6879;51.368;6.782;2024-01-30T05:52:36;8.70;99.90
13616;DHT22;6879;51.368;6.782;2024-01-30T05:55:05;8.60;99.90
13616;DHT22;6879;51.368;6.782;2024-01-30T05:57:34;8.60;99.90
13616;DHT22;6879;51.368;6.782;2024-01-30T06:00:03;8.60;99.90
13616;DHT22;6879;51.368;6.782;2024-01-30T06:02:32;8.60;99.90
13616;DHT22;6879;51.368;6.782;2024-01-30T06:05:01;8.50;99.90
13616;DHT22;6879;51.368;6.782;2024-01-30T06:07:31;8.50;99.90
13616;DHT22;6879;51.368;6.782;2024-01-30T06:10:04;8.50;99.90
13616;DHT22;6879;51.368;6.782;2024-01-30T06:12:33;8.50;99.90
13616;DHT22;6879;51.368;6.782;2024-01-30T06:15:01;8.50;99.90
13616;DHT22;6879;51.368;6.782;2024-01-30T06:17:30;8.50;99.90
13616;DHT22;6879;51.368;6.782;2024-01-30T06:19:59;8.60;99.90
13616;DHT22;6879;51.368;6.782;2024-01-30T06:22:27;8.70;99.90
13616;DHT22;6879;51.368;6.782;2024-01-30T06:24:57;8.80;99.90
13616;DHT22;6879;51.368;6.782;2024-01-30T06:27:26;8.80;99.90
13616;DHT22;6879;51.368;6.782;2024-01-30T06:29:55;8.90;99.90
13616;DHT22;6879;51.368;6.782;2024-01-30T06:32:24;8.90;99.90
13616;DHT22;6879;51.368;6.782;2024-01-30T06:34:53;8.90;99.90
13616;DHT22;6879;51.368;6.782;2024-01-30T06:37:21;8.90;99.90
13616;DHT22;6879;51.368;6.782;2024-01-30T06:39:50;8.90;99.90
13616;DHT22;6879;51.368;6.782;2024-01-30T06:42:21;8.90;99.90
13616;DHT22;6879;51.368;6.782;2024-01-30T06:44:49;8.90;99.90
13616;DHT22;6879;51.368;6.782;2024-01-30T06:47:18;9.00;99.90
13616;DHT22;6879;51.368;6.782;2024-01-30T06:49:47;9.00;99.90
13616;DHT22;6879;51.368;6.782;2024-01-30T06:52:16;9.00;99.90
13616;DHT22;6879;51.368;6.782;2024-01-30T06:54:45;9.00;99.90
13616;DHT22;6879;51.368;6.782;2024-01-30T06:57:13;9.00;99.90
13616;DHT22;6879;51.368;6.782;2024-01-30T06:59:43;9.00;99.90
13616;DHT22;6879;51.368;6.782;2024-01-30T07:02:12;9.10;99.90
13616;DHT22;6879;51.368;6.782;2024-01-30T07:04:41;9.10;99.90
13616;DHT22;6879;51.368;6.782;2024-01-30T07:07:13;9.10;99.90
13616;DHT22;6879;51.368;6.782;2024-01-30T07:09:43;9.20;99.90
13616;DHT22;6879;51.368;6.782;2024-01-30T07:12:11;9.20;99.90
13616;DHT22;6879;51.368;6.782;2024-01-30T07:14:40;9.30;99.90
13616;DHT22;6879;51.368;6.782;2024-01-30T07:17:10;9.30;99.90
13616;DHT22;6879;51.368;6.782;2024-01-30T07:19:38;9.20;99.90
13616;DHT22;6879;51.368;6.782;2024-01-30T07:22:08;9.30;99.90
13616;DHT22;6879;51.368;6.782;2024-01-30T07:24:41;9.30;99.90
13616;DHT22;6879;51.368;6.782;2024-01-30T07:27:12;9.30;99.90
13616;DHT22;6879;51.368;6.782;2024-01-30T07:29:40;9.20;99.90
13616;DHT22;6879;51.368;6.782;2024-01-30T07:32:10;9.30;99.90
13616;DHT22;6879;51.368;6.782;2024-01-30T07:34:39;9.30;99.90
13616;DHT22;6879;51.368;6.782;2024-01-30T07:37:25;9.30;99.90
13616;DHT22;6879;51.368;6.782;2024-01-30T07:39:53;9.30;99.90
13616;DHT22;6879;51.368;6.782;2024-01-30T07:42:22;9.40;99.90
13616;DHT22;6879;51.368;6.782;2024-01-30T07:44:50;9.40;99.90
13616;DHT22;6879;51.368;6.782;2024-01-30T07:47:20;9.40;99.90
13616;DHT22;6879;51.368;6.782;2024-01-30T07:49:49;9.50;99.90
13616;DHT22;6879;51.368;6.782;2024-01-30T07:52:18;9.50;99.90
13616;DHT22;6879;51.368;6.782;2024-01-30T07:54:47;9.50;99.90
13616;DHT22;6879;51.368;6.782;2024-01-30T07:57:16;9.50;99.90
13616;DHT22;6879;51.368;6.782;2024-01-30T07:59:45;9.60;99.90
13616;DHT22;6879;51.368;6.782;2024-01-30T08:02:13;9.60;99.90
13616;DHT22;6879;51.368;6.782;2024-01-30T08:04:43;9.60;99.90
13616;DHT22;6879;51.368;6.782;2024-01-30T08:07:16;9.60;99.90
13616;DHT22;6879;51.368;6.782;2024-01-30T08:09:45;9.60;99.90
13616;DHT22;6879;51.368;6.782;2024-01-30T08:12:13;9.70;99.90
13616;DHT22;6879;51.368;6.782;2024-01-30T08:14:42;9.70;99.90
13616;DHT22;6879;51.368;6.782;2024-01-30T08:17:11;9.70;99.90
13616;DHT22;6879;51.368;6.782;2024-01-30T08:19:39;9.70;99.90
13616;DHT22;6879;51.368;6.782;2024-01-30T08:22:09;9.80;99.90
13616;DHT22;6879;51.368;6.782;2024-01-30T08:24:38;9.80;99.90
13616;DHT22;6879;51.368;6.782;2024-01-30T08:27:07;9.90;99.90
13616;DHT22;6879;51.368;6.782;2024-01-30T08:29:36;9.90;99.90
13616;DHT22;6879;51.368;6.782;2024-01-30T08:32:06;9.90;99.90
13616;DHT22;6879;51.368;6.782;2024-01-30T08:34:34;9.90;99.90
13616;DHT22;6879;51.368;6.782;2024-01-30T08:37:03;10.00;99.90
13616;DHT22;6879;51.368;6.782;2024-01-30T08:39:33;10.00;99.90
13616;DHT22;6879;51.368;6.782;2024-01-30T08:42:02;10.00;99.90
13616;DHT22;6879;51.368;6.782;2024-01-30T08:44:31;10.00;99.90
13616;DHT22;6879;51.368;6.782;2024-01-30T08:46:59;10.10;99.90
13616;DHT22;6879;51.368;6.782;2024-01-30T08:49:28;10.10;99.90
13616;DHT22;6879;51.368;6.782;2024-01-30T08:51:57;10.20;99.90
13616;DHT22;6879;51.368;6.782;2024-01-30T08:54:25;10.20;99.90
13616;DHT22;6879;51.368;6.782;2024-01-30T08:56:55;10.20;99.90
13616;DHT22;6879;51.368;6.782;2024-01-30T08:59:25;10.20;99.90
13616;DHT22;6879;51.368;6.782;2024-01-30T09:01:54;10.20;99.90
13616;DHT22;6879;51.368;6.782;2024-01-30T09:04:38;10.20;99.90
13616;DHT22;6879;51.368;6.782;2024-01-30T09:07:08;10.20;99.90
13616;DHT22;6879;51.368;6.782;2024-01-30T09:09:38;10.30;99.90
13616;DHT22;6879;51.368;6.782;2024-01-30T09:12:09;10.30;99.90
13616;DHT22;6879;51.368;6.782;2024-01-30T09:14:39;10.30;99.90
13616;DHT22;6879;51.368;6.782;2024-01-30T09:17:08;10.30;99.90
13616;DHT22;6879;51.368;6.782;2024-01-30T09:19:38;10.40;99.90
13616;DHT22;6879;51.368;6.782;2024-01-30T09:22:06;10.50;99.90
13616;DHT22;6879;51.368;6.782;2024-01-30T09:24:35;10.70;99.90
13616;DHT22;6879;51.368;6.782;2024-01-30T09:27:04;10.80;99.90
13616;DHT22;6879;51.368;6.782;2024-01-30T09:29:34;10.80;99.90
13616;DHT22;6879;51.368;6.782;2024-01-30T09:32:05;10.90;99.90
13616;DHT22;6879;51.368;6.782;2024-01-30T09:34:33;11.00;99.90
13616;DHT22;6879;51.368;6.782;2024-01-30T09:37:03;11.10;99.90
13616;DHT22;6879;51.368;6.782;2024-01-30T09:39:32;11.20;99.90
13616;DHT22;6879;51.368;6.782;2024-01-30T09:42:04;11.40;99.90
13616;DHT22;6879;51.368;6.782;2024-01-30T09:44:36;11.40;99.90
13616;DHT22;6879;51.368;6.782;2024-01-30T09:47:09;11.50;99.90
13616;DHT22;6879;51.368;6.782;2024-01-30T09:49:38;11.50;99.90
13616;DHT22;6879;51.368;6.782;2024-01-30T09:52:08;11.50;99.90
13616;DHT22;6879;51.368;6.782;2024-01-30T09:54:38;11.50;99.90
13616;DHT22;6879;51.368;6.782;2024-01-30T09:57:08;11.50;99.90
13616;DHT22;6879;51.368;6.782;2024-01-30T09:59:38;11.60;99.90
13616;DHT22;6879;51.368;6.782;2024-01-30T10:02:07;11.70;99.90
13616;DHT22;6879;51.368;6.782;2024-01-30T10:04:36;11.80;99.90
13616;DHT22;6879;51.368;6.782;2024-01-30T10:07:05;11.80;99.90
13616;DHT22;6879;51.368;6.782;2024-01-30T10:09:34;11.90;99.90
13616;DHT22;6879;51.368;6.782;2024-01-30T10:12:04;11.90;99.90
13616;DHT22;6879;51.368;6.782;2024-01-30T10:14:32;12.00;99.90
13616;DHT22;6879;51.368;6.782;2024-01-30T10:17:03;12.10;99.90
13616;DHT22;6879;51.368;6.782;2024-01-30T10:19:43;12.20;99.90
13616;DHT22;6879;51.368;6.782;2024-01-30T10:22:12;12.10;99.90
13616;DHT22;6879;51.368;6.782;2024-01-30T10:24:41;12.10;99.90
13616;DHT22;6879;51.368;6.782;2024-01-30T10:27:12;12.10;99.90
13616;DHT22;6879;51.368;6.782;2024-01-30T10:29:41;12.10;99.90
13616;DHT22;6879;51.368;6.782;2024-01-30T10:32:11;12.10;99.90
13616;DHT22;6879;51.368;6.782;2024-01-30T10:34:39;12.10;99.90
13616;DHT22;6879;51.368;6.782;2024-01-30T10:37:09;12.10;99.90
13616;DHT22;6879;51.368;6.782;2024-01-30T10:39:40;12.10;99.90
13616;DHT22;6879;51.368;6.782;2024-01-30T10:42:12;12.20;99.90
13616;DHT22;6879;51.368;6.782;2024-01-30T10:44:46;12.20;99.90
13616;DHT22;6879;51.368;6.782;2024-01-30T10:47:24;12.30;99.90
13616;DHT22;6879;51.368;6.782;2024-01-30T10:49:54;12.40;99.90
13616;DHT22;6879;51.368;6.782;2024-01-30T10:52:24;12.40;99.90
13616;DHT22;6879;51.368;6.782;2024-01-30T10:54:54;12.40;99.90
13616;DHT22;6879;51.368;6.782;2024-01-30T10:57:24;12.50;99.90
13616;DHT22;6879;51.368;6.782;2024-01-30T10:59:55;12.50;99.90
13616;DHT22;6879;51.368;6.782;2024-01-30T11:02:26;12.60;99.90
13616;DHT22;6879;51.368;6.782;2024-01-30T11:04:56;12.60;99.90
13616;DHT22;6879;51.368;6.782;2024-01-30T11:07:27;12.70;99.90
13616;DHT22;6879;51.368;6.782;2024-01-30T11:10:01;12.70;99.90
13616;DHT22;6879;51.368;6.782;2024-01-30T11:12:32;12.70;99.90
13616;DHT22;6879;51.368;6.782;2024-01-30T11:15:06;12.70;99.90
13616;DHT22;6879;51.368;6.782;2024-01-30T11:17:51;12.80;99.90
13616;DHT22;6879;51.368;6.782;2024-01-30T11:20:22;12.80;99.90
13616;DHT22;6879;51.368;6.782;2024-01-30T11:22:52;12.70;99.90
13616;DHT22;6879;51.368;6.782;2024-01-30T11:25:22;12.80;99.90
13616;DHT22;6879;51.368;6.782;2024-01-30T11:27:52;12.70;99.90
13616;DHT22;6879;51.368;6.782;2024-01-30T11:30:22;12.70;99.90
13616;DHT22;6879;51.368;6.782;2024-01-30T11:33:03;12.70;99.90
13616;DHT22;6879;51.368;6.782;2024-01-30T11:35:35;12.80;99.90
13616;DHT22;6879;51.368;6.782;2024-01-30T11:38:06;12.80;99.90
13616;DHT22;6879;51.368;6.782;2024-01-30T11:40:38;12.70;99.90
13616;DHT22;6879;51.368;6.782;2024-01-30T11:43:08;12.60;99.90
13616;DHT22;6879;51.368;6.782;2024-01-30T11:45:37;12.50;99.90
13616;DHT22;6879;51.368;6.782;2024-01-30T11:48:08;12.50;99.90
13616;DHT22;6879;51.368;6.782;2024-01-30T11:50:39;12.50;99.90
13616;DHT22;6879;51.368;6.782;2024-01-30T11:53:08;12.50;99.90
13616;DHT22;6879;51.368;6.782;2024-01-30T11:55:41;12.40;99.90
13616;DHT22;6879;51.368;6.782;2024-01-30T11:58:10;12.40;99.90
13616;DHT22;6879;51.368;6.782;2024-01-30T12:00:39;12.40;99.90
13616;DHT22;6879;51.368;6.782;2024-01-30T12:03:11;12.40;99.90
13616;DHT22;6879;51.368;6.782;2024-01-30T12:05:43;12.50;99.90
13616;DHT22;6879;51.368;6.782;2024-01-30T12:08:15;12.50;99.90
13616;DHT22;6879;51.368;6.782;2024-01-30T12:10:44;12.60;99.90
13616;DHT22;6879;51.368;6.782;2024-01-30T12:13:15;12.60;99.90
13616;DHT22;6879;51.368;6.782;2024-01-30T12:15:44;12.60;99.90
13616;DHT22;6879;51.368;6.782;2024-01-30T12:18:14;12.60;99.90
13616;DHT22;6879;51.368;6.782;2024-01-30T12:20:57;12.70;99.90
13616;DHT22;6879;51.368;6.782;2024-01-30T12:23:27;12.70;99.90
13616;DHT22;6879;51.368;6.782;2024-01-30T12:25:56;12.70;99.90
13616;DHT22;6879;51.368;6.782;2024-01-30T12:28:25;12.60;99.90
13616;DHT22;6879;51.368;6.782;2024-01-30T12:30:55;12.60;99.90
13616;DHT22;6879;51.368;6.782;2024-01-30T12:33:27;12.60;99.90
13616;DHT22;6879;51.368;6.782;2024-01-30T12:35:56;12.60;99.90
13616;DHT22;6879;51.368;6.782;2024-01-30T12:38:30;12.60;99.90
13616;DHT22;6879;51.368;6.782;2024-01-30T12:40:59;12.70;99.90
13616;DHT22;6879;51.368;6.782;2024-01-30T12:43:28;12.70;99.90
13616;DHT22;6879;51.368;6.782;2024-01-30T12:46:05;12.80;99.90
13616;DHT22;6879;51.368;6.782;2024-01-30T12:48:36;12.80;99.90
13616;DHT22;6879;51.368;6.782;2024-01-30T12:51:05;12.80;99.90
13616;DHT22;6879;51.368;6.782;2024-01-30T12:53:33;12.80;99.90
13616;DHT22;6879;51.368;6.782;2024-01-30T12:56:02;12.80;99.90
13616;DHT22;6879;51.368;6.782;2024-01-30T12:58:31;12.80;99.90
13616;DHT22;6879;51.368;6.782;2024-01-30T13:01:00;12.80;99.90
13616;DHT22;6879;51.368;6.782;2024-01-30T13:03:29;12.70;99.90
13616;DHT22;6879;51.368;6.782;2024-01-30T13:05:59;12.70;99.90
13616;DHT22;6879;51.368;6.782;2024-01-30T13:08:28;12.70;99.90
13616;DHT22;6879;51.368;6.782;2024-01-30T13:10:57;12.70;99.90
13616;DHT22;6879;51.368;6.782;2024-01-30T13:13:25;12.70;99.90
13616;DHT22;6879;51.368;6.782;2024-01-30T13:15:54;12.70;99.90
13616;DHT22;6879;51.368;6.782;2024-01-30T13:18:23;12.70;99.90
13616;DHT22;6879;51.368;6.782;2024-01-30T13:20:51;12.70;99.90
13616;DHT22;6879;51.368;6.782;2024-01-30T13:23:21;12.70;99.90
13616;DHT22;6879;51.368;6.782;2024-01-30T13:25:50;12.70;99.90
13616;DHT22;6879;51.368;6.782;2024-01-30T13:28:21;12.70;99.90
13616;DHT22;6879;51.368;6.782;2024-01-30T13:30:49;12.70;99.90
13616;DHT22;6879;51.368;6.782;2024-01-30T13:33:18;12.80;99.90
13616;DHT22;6879;51.368;6.782;2024-01-30T13:35:47;12.80;99.90
13616;DHT22;6879;51.368;6.782;2024-01-30T13:38:15;12.80;99.90
13616;DHT22;6879;51.368;6.782;2024-01-30T13:40:45;12.80;99.90
13616;DHT22;6879;51.368;6.782;2024-01-30T13:43:14;12.80;99.90
13616;DHT22;6879;51.368;6.782;2024-01-30T13:45:43;12.80;99.90
13616;DHT22;6879;51.368;6.782;2024-01-30T13:48:13;12.80;99.90
13616;DHT22;6879;51.368;6.782;2024-01-30T13:50:43;12.80;99.90
13616;DHT22;6879;51.368;6.782;2024-01-30T13:53:15;12.80;99.90
13616;DHT22;6879;51.368;6.782;2024-01-30T13:55:46;12.80;99.90
13616;DHT22;6879;51.368;6.782;2024-01-30T13:58:15;12.80;99.90
13616;DHT22;6879;51.368;6.782;2024-01-30T14:00:45;12.80;99.90
13616;DHT22;6879;51.368;6.782;2024-01-30T14:03:16;12.90;99.90
13616;DHT22;6879;51.368;6.782;2024-01-30T14:05:45;13.00;99.90
13616;DHT22;6879;51.368;6.782;2024-01-30T14:08:14;13.10;99.90
13616;DHT22;6879;51.368;6.782;2024-01-30T14:10:45;13.20;99.90
13616;DHT22;6879;51.368;6.782;2024-01-30T14:13:15;13.10;99.90
13616;DHT22;6879;51.368;6.782;2024-01-30T14:16:17;13.00;99.90
13616;DHT22;6879;51.368;6.782;2024-01-30T14:19:01;13.00;99.90
13616;DHT22;6879;51.368;6.782;2024-01-30T14:21:29;13.00;99.90
13616;DHT22;6879;51.368;6.782;2024-01-30T14:23:58;13.00;99.90
13616;DHT22;6879;51.368;6.782;2024-01-30T14:26:28;13.00;99.90
13616;DHT22;6879;51.368;6.782;2024-01-30T14:28:57;13.00;99.90
13616;DHT22;6879;51.368;6.782;2024-01-30T14:31:25;13.00;99.90
13616;DHT22;6879;51.368;6.782;2024-01-30T14:33:54;12.90;99.90
13616;DHT22;6879;51.368;6.782;2024-01-30T14:36:24;12.90;99.90
13616;DHT22;6879;51.368;6.782;2024-01-30T14:38:55;12.90;99.90
13616;DHT22;6879;51.368;6.782;2024-01-30T14:41:24;12.90;99.90
13616;DHT22;6879;51.368;6.782;2024-01-30T14:43:57;13.00;99.90
13616;DHT22;6879;51.368;6.782;2024-01-30T14:46:26;13.00;99.90
13616;DHT22;6879;51.368;6.782;2024-01-30T14:48:54;13.00;99.90
13616;DHT22;6879;51.368;6.782;2024-01-30T14:51:25;12.90;99.90
13616;DHT22;6879;51.368;6.782;2024-01-30T14:53:53;12.80;99.90
13616;DHT22;6879;51.368;6.782;2024-01-30T14:56:22;12.90;99.90
13616;DHT22;6879;51.368;6.782;2024-01-30T14:58:51;12.90;99.90
13616;DHT22;6879;51.368;6.782;2024-01-30T15:01:22;12.90;99.90
13616;DHT22;6879;51.368;6.782;2024-01-30T15:03:50;12.90;99.90
13616;DHT22;6879;51.368;6.782;2024-01-30T15:06:19;12.80;99.90
13616;DHT22;6879;51.368;6.782;2024-01-30T15:08:49;12.80;99.90
13616;DHT22;6879;51.368;6.782;2024-01-30T15:11:18;12.80;99.90
13616;DHT22;6879;51.368;6.782;2024-01-30T15:13:49;12.80;99.90
13616;DHT22;6879;51.368;6.782;2024-01-30T15:16:18;12.80;99.90
13616;DHT22;6879;51.368;6.782;2024-01-30T15:18:48;12.70;99.90
13616;DHT22;6879;51.368;6.782;2024-01-30T15:21:16;12.60;99.90
13616;DHT22;6879;51.368;6.782;2024-01-30T15:23:47;12.60;99.90
13616;DHT22;6879;51.368;6.782;2024-01-30T15:26:16;12.50;99.90
13616;DHT22;6879;51.368;6.782;2024-01-30T15:28:44;12.30;99.90
13616;DHT22;6879;51.368;6.782;2024-01-30T15:31:13;12.30;99.90
13616;DHT22;6879;51.368;6.782;2024-01-30T15:33:43;12.20;99.90
13616;DHT22;6879;51.368;6.782;2024-01-30T15:36:28;12.20;99.90
13616;DHT22;6879;51.368;6.782;2024-01-30T15:38:57;12.00;99.90
13616;DHT22;6879;51.368;6.782;2024-01-30T15:41:26;11.90;99.90
13616;DHT22;6879;51.368;6.782;2024-01-30T15:43:55;11.90;99.90
13616;DHT22;6879;51.368;6.782;2024-01-30T15:46:23;11.80;99.90
13616;DHT22;6879;51.368;6.782;2024-01-30T15:48:52;11.80;99.90
13616;DHT22;6879;51.368;6.782;2024-01-30T15:51:21;11.70;99.90
13616;DHT22;6879;51.368;6.782;2024-01-30T15:53:54;11.70;99.90
13616;DHT22;6879;51.368;6.782;2024-01-30T15:56:23;11.70;99.90
13616;DHT22;6879;51.368;6.782;2024-01-30T15:58:51;11.60;99.90
13616;DHT22;6879;51.368;6.782;2024-01-30T16:01:20;11.60;99.90
13616;DHT22;6879;51.368;6.782;2024-01-30T16:03:49;11.60;99.90
13616;DHT22;6879;51.368;6.782;2024-01-30T16:06:17;11.60;99.90
13616;DHT22;6879;51.368;6.782;2024-01-30T16:08:46;11.50;99.90
13616;DHT22;6879;51.368;6.782;2024-01-30T16:11:17;11.40;99.90